Harrison, Michigan
Current Conditions -  °F | °C
As of 4:28 AM on Wednesday 22 Oct 2014 (Local Time) from KHTL Reporting Station
Overcast Overcast  
Wind Chill: 33°   Ceiling: 1400
Heat Index: 33°   Visibility: 10mi
Dew Point: 30°   Wind: 0mph
Humidity: 89%   Direction: NA
Pressure: 30.32"   Gusts: NA
Location:  44.02°N, 84.8°W
Report Text: KHTL 220828Z AUTO 00000KT 10SM OVC014 01/M01 A3032 RMK AO2 T00061011
Loading
Personal Weather Stations






























Interactive Weather Map New forecast layout! Learn more

10-Day Weather Forecast

Advertisements
Track Severe Weather on mobile